sensor_id;sensor_type;location;lat;lon;timestamp;P1;durP1;ratioP1;P2;durP2;ratioP2
21517;SDS011;61765;45.794;24.150;2022-09-09T00:04:30;11.18;;;8.00;;
21517;SDS011;61765;45.794;24.150;2022-09-09T00:12:37;10.23;;;7.63;;
21517;SDS011;61765;45.794;24.150;2022-09-09T00:20:52;8.75;;;7.47;;
21517;SDS011;61765;45.794;24.150;2022-09-09T00:29:03;13.00;;;8.35;;
21517;SDS011;61765;45.794;24.150;2022-09-09T00:37:22;12.15;;;8.05;;
21517;SDS011;61765;45.794;24.150;2022-09-09T00:45:37;10.38;;;8.07;;
21517;SDS011;61765;45.794;24.150;2022-09-09T01:02:41;12.50;;;8.15;;
21517;SDS011;61765;45.794;24.150;2022-09-09T01:10:59;13.30;;;9.10;;
21517;SDS011;61765;45.794;24.150;2022-09-09T01:19:07;11.32;;;8.38;;
21517;SDS011;61765;45.794;24.150;2022-09-09T01:27:31;9.13;;;8.18;;
21517;SDS011;61765;45.794;24.150;2022-09-09T01:35:42;10.75;;;9.10;;
21517;SDS011;61765;45.794;24.150;2022-09-09T01:43:57;11.45;;;9.02;;
21517;SDS011;61765;45.794;24.150;2022-09-09T01:52:04;11.40;;;7.97;;
21517;SDS011;61765;45.794;24.150;2022-09-09T02:00:15;11.90;;;8.55;;
21517;SDS011;61765;45.794;24.150;2022-09-09T02:08:33;12.05;;;8.00;;
21517;SDS011;61765;45.794;24.150;2022-09-09T02:16:49;7.43;;;6.50;;
21517;SDS011;61765;45.794;24.150;2022-09-09T02:25:12;9.88;;;6.97;;
21517;SDS011;61765;45.794;24.150;2022-09-09T02:33:24;9.98;;;5.85;;
21517;SDS011;61765;45.794;24.150;2022-09-09T02:41:33;7.93;;;6.10;;
21517;SDS011;61765;45.794;24.150;2022-09-09T02:49:46;8.07;;;6.00;;
21517;SDS011;61765;45.794;24.150;2022-09-09T02:58:02;8.18;;;6.28;;
21517;SDS011;61765;45.794;24.150;2022-09-09T03:06:13;9.30;;;6.40;;
21517;SDS011;61765;45.794;24.150;2022-09-09T03:14:24;8.02;;;6.00;;
21517;SDS011;61765;45.794;24.150;2022-09-09T03:22:32;8.18;;;6.55;;
21517;SDS011;61765;45.794;24.150;2022-09-09T03:30:38;7.10;;;6.18;;
21517;SDS011;61765;45.794;24.150;2022-09-09T03:38:46;10.50;;;7.30;;
21517;SDS011;61765;45.794;24.150;2022-09-09T03:46:52;14.90;;;8.05;;
21517;SDS011;61765;45.794;24.150;2022-09-09T03:55:00;18.98;;;11.45;;
21517;SDS011;61765;45.794;24.150;2022-09-09T04:03:06;18.38;;;10.43;;
21517;SDS011;61765;45.794;24.150;2022-09-09T04:11:14;14.50;;;8.90;;
21517;SDS011;61765;45.794;24.150;2022-09-09T04:19:21;15.40;;;8.05;;
21517;SDS011;61765;45.794;24.150;2022-09-09T04:27:30;12.95;;;8.80;;
21517;SDS011;61765;45.794;24.150;2022-09-09T04:35:36;14.80;;;8.35;;
21517;SDS011;61765;45.794;24.150;2022-09-09T04:43:45;13.75;;;8.70;;
21517;SDS011;61765;45.794;24.150;2022-09-09T04:51:51;15.32;;;9.63;;
21517;SDS011;61765;45.794;24.150;2022-09-09T04:59:59;15.02;;;9.70;;
21517;SDS011;61765;45.794;24.150;2022-09-09T05:08:09;21.50;;;10.23;;
21517;SDS011;61765;45.794;24.150;2022-09-09T05:16:18;17.00;;;9.90;;
21517;SDS011;61765;45.794;24.150;2022-09-09T05:24:24;17.00;;;9.32;;
21517;SDS011;61765;45.794;24.150;2022-09-09T05:32:35;14.25;;;9.95;;
21517;SDS011;61765;45.794;24.150;2022-09-09T05:40:46;16.02;;;10.55;;
21517;SDS011;61765;45.794;24.150;2022-09-09T05:48:56;13.68;;;9.70;;
21517;SDS011;61765;45.794;24.150;2022-09-09T05:57:05;12.50;;;9.38;;
21517;SDS011;61765;45.794;24.150;2022-09-09T06:05:13;12.93;;;10.10;;
21517;SDS011;61765;45.794;24.150;2022-09-09T06:13:20;18.67;;;11.55;;
21517;SDS011;61765;45.794;24.150;2022-09-09T06:21:28;16.38;;;12.02;;
21517;SDS011;61765;45.794;24.150;2022-09-09T06:29:36;24.50;;;15.13;;
21517;SDS011;61765;45.794;24.150;2022-09-09T06:37:46;23.23;;;13.27;;
21517;SDS011;61765;45.794;24.150;2022-09-09T06:45:54;22.20;;;13.77;;
21517;SDS011;61765;45.794;24.150;2022-09-09T06:54:03;19.45;;;11.20;;
21517;SDS011;61765;45.794;24.150;2022-09-09T07:02:09;21.02;;;11.70;;
21517;SDS011;61765;45.794;24.150;2022-09-09T07:10:17;14.55;;;8.75;;
21517;SDS011;61765;45.794;24.150;2022-09-09T07:18:24;11.27;;;8.98;;
21517;SDS011;61765;45.794;24.150;2022-09-09T07:26:32;16.73;;;8.73;;
21517;SDS011;61765;45.794;24.150;2022-09-09T07:34:38;13.30;;;8.90;;
21517;SDS011;61765;45.794;24.150;2022-09-09T07:42:47;12.25;;;9.75;;
21517;SDS011;61765;45.794;24.150;2022-09-09T07:50:52;12.07;;;9.55;;
21517;SDS011;61765;45.794;24.150;2022-09-09T07:59:10;14.23;;;9.52;;
21517;SDS011;61765;45.794;24.150;2022-09-09T08:07:17;14.93;;;8.52;;
21517;SDS011;61765;45.794;24.150;2022-09-09T08:15:30;10.45;;;8.65;;
21517;SDS011;61765;45.794;24.150;2022-09-09T08:23:37;10.23;;;8.45;;
21517;SDS011;61765;45.794;24.150;2022-09-09T08:31:47;15.55;;;8.77;;
21517;SDS011;61765;45.794;24.150;2022-09-09T08:39:54;14.13;;;9.55;;
21517;SDS011;61765;45.794;24.150;2022-09-09T08:48:06;11.88;;;8.55;;
21517;SDS011;61765;45.794;24.150;2022-09-09T08:56:24;15.32;;;9.07;;
21517;SDS011;61765;45.794;24.150;2022-09-09T09:04:37;10.38;;;8.52;;
21517;SDS011;61765;45.794;24.150;2022-09-09T09:12:50;12.63;;;9.32;;
21517;SDS011;61765;45.794;24.150;2022-09-09T09:21:02;13.68;;;9.40;;
21517;SDS011;61765;45.794;24.150;2022-09-09T09:29:18;13.90;;;9.15;;
21517;SDS011;61765;45.794;24.150;2022-09-09T09:37:29;12.18;;;9.40;;
21517;SDS011;61765;45.794;24.150;2022-09-09T09:45:41;10.88;;;9.07;;
21517;SDS011;61765;45.794;24.150;2022-09-09T09:54:13;11.82;;;10.52;;
21517;SDS011;61765;45.794;24.150;2022-09-09T10:02:31;20.25;;;11.13;;
21517;SDS011;61765;45.794;24.150;2022-09-09T10:11:02;11.90;;;9.65;;
21517;SDS011;61765;45.794;24.150;2022-09-09T10:19:20;10.98;;;9.82;;
21517;SDS011;61765;45.794;24.150;2022-09-09T10:27:38;12.63;;;9.05;;
21517;SDS011;61765;45.794;24.150;2022-09-09T10:36:00;16.65;;;11.55;;
21517;SDS011;61765;45.794;24.150;2022-09-09T10:44:20;21.55;;;12.75;;
21517;SDS011;61765;45.794;24.150;2022-09-09T10:52:40;18.90;;;12.98;;
21517;SDS011;61765;45.794;24.150;2022-09-09T11:00:58;16.25;;;11.45;;
21517;SDS011;61765;45.794;24.150;2022-09-09T11:09:10;17.95;;;12.80;;
21517;SDS011;61765;45.794;24.150;2022-09-09T11:17:23;16.98;;;11.50;;
21517;SDS011;61765;45.794;24.150;2022-09-09T11:25:35;14.93;;;11.85;;
21517;SDS011;61765;45.794;24.150;2022-09-09T11:42:23;14.35;;;11.07;;
21517;SDS011;61765;45.794;24.150;2022-09-09T11:50:36;14.50;;;10.35;;
21517;SDS011;61765;45.794;24.150;2022-09-09T11:58:43;16.55;;;11.98;;
21517;SDS011;61765;45.794;24.150;2022-09-09T12:07:04;18.30;;;13.63;;
21517;SDS011;61765;45.794;24.150;2022-09-09T12:15:27;19.08;;;14.43;;
21517;SDS011;61765;45.794;24.150;2022-09-09T12:23:38;21.70;;;13.30;;
21517;SDS011;61765;45.794;24.150;2022-09-09T12:31:51;16.48;;;12.57;;
21517;SDS011;61765;45.794;24.150;2022-09-09T12:40:05;15.80;;;13.03;;
21517;SDS011;61765;45.794;24.150;2022-09-09T12:48:24;20.33;;;13.65;;
21517;SDS011;61765;45.794;24.150;2022-09-09T12:56:37;15.43;;;11.95;;
21517;SDS011;61765;45.794;24.150;2022-09-09T13:04:42;16.40;;;13.02;;
21517;SDS011;61765;45.794;24.150;2022-09-09T13:12:51;17.38;;;10.90;;
21517;SDS011;61765;45.794;24.150;2022-09-09T13:20:56;12.13;;;10.18;;
21517;SDS011;61765;45.794;24.150;2022-09-09T13:29:14;11.70;;;9.05;;
21517;SDS011;61765;45.794;24.150;2022-09-09T13:37:26;13.85;;;11.65;;
21517;SDS011;61765;45.794;24.150;2022-09-09T13:45:38;14.02;;;10.25;;
21517;SDS011;61765;45.794;24.150;2022-09-09T13:53:45;10.80;;;9.35;;
21517;SDS011;61765;45.794;24.150;2022-09-09T14:01:53;11.23;;;9.52;;
21517;SDS011;61765;45.794;24.150;2022-09-09T14:09:58;16.60;;;10.05;;
21517;SDS011;61765;45.794;24.150;2022-09-09T14:18:08;14.15;;;10.93;;
21517;SDS011;61765;45.794;24.150;2022-09-09T14:26:16;15.48;;;10.57;;
21517;SDS011;61765;45.794;24.150;2022-09-09T14:34:25;14.68;;;11.27;;
21517;SDS011;61765;45.794;24.150;2022-09-09T14:42:30;12.55;;;10.65;;
21517;SDS011;61765;45.794;24.150;2022-09-09T14:50:38;14.10;;;10.70;;
21517;SDS011;61765;45.794;24.150;2022-09-09T14:58:45;15.60;;;11.88;;
21517;SDS011;61765;45.794;24.150;2022-09-09T15:06:53;13.07;;;10.88;;
21517;SDS011;61765;45.794;24.150;2022-09-09T15:14:58;11.88;;;10.25;;
21517;SDS011;61765;45.794;24.150;2022-09-09T15:23:06;16.10;;;11.43;;
21517;SDS011;61765;45.794;24.150;2022-09-09T15:31:12;15.73;;;11.23;;
21517;SDS011;61765;45.794;24.150;2022-09-09T15:39:22;13.90;;;11.25;;
21517;SDS011;61765;45.794;24.150;2022-09-09T15:47:29;15.20;;;10.95;;
21517;SDS011;61765;45.794;24.150;2022-09-09T15:55:37;14.00;;;10.40;;
21517;SDS011;61765;45.794;24.150;2022-09-09T16:03:42;17.88;;;10.50;;
21517;SDS011;61765;45.794;24.150;2022-09-09T16:11:51;12.95;;;10.30;;
21517;SDS011;61765;45.794;24.150;2022-09-09T16:19:58;14.77;;;9.98;;
21517;SDS011;61765;45.794;24.150;2022-09-09T16:28:06;15.52;;;10.48;;
21517;SDS011;61765;45.794;24.150;2022-09-09T16:36:12;21.45;;;10.80;;
21517;SDS011;61765;45.794;24.150;2022-09-09T16:44:21;12.02;;;9.90;;
21517;SDS011;61765;45.794;24.150;2022-09-09T16:52:27;12.80;;;10.13;;
21517;SDS011;61765;45.794;24.150;2022-09-09T17:00:35;12.18;;;10.48;;
21517;SDS011;61765;45.794;24.150;2022-09-09T17:08:41;15.15;;;12.18;;
21517;SDS011;61765;45.794;24.150;2022-09-09T17:16:50;12.98;;;11.43;;
21517;SDS011;61765;45.794;24.150;2022-09-09T17:24:55;17.48;;;12.90;;
21517;SDS011;61765;45.794;24.150;2022-09-09T17:33:03;19.25;;;13.60;;
21517;SDS011;61765;45.794;24.150;2022-09-09T17:41:09;20.20;;;13.80;;
21517;SDS011;61765;45.794;24.150;2022-09-09T17:49:19;21.85;;;13.88;;
21517;SDS011;61765;45.794;24.150;2022-09-09T17:57:24;15.30;;;12.98;;
21517;SDS011;61765;45.794;24.150;2022-09-09T18:05:32;14.45;;;11.77;;
21517;SDS011;61765;45.794;24.150;2022-09-09T18:13:39;14.75;;;10.45;;
21517;SDS011;61765;45.794;24.150;2022-09-09T18:21:47;12.07;;;9.93;;
21517;SDS011;61765;45.794;24.150;2022-09-09T18:29:53;15.88;;;11.73;;
21517;SDS011;61765;45.794;24.150;2022-09-09T18:38:01;13.55;;;10.82;;
21517;SDS011;61765;45.794;24.150;2022-09-09T18:46:07;16.80;;;13.30;;
21517;SDS011;61765;45.794;24.150;2022-09-09T18:54:16;15.95;;;11.25;;
21517;SDS011;61765;45.794;24.150;2022-09-09T19:02:26;15.27;;;11.98;;
21517;SDS011;61765;45.794;24.150;2022-09-09T19:10:37;16.83;;;13.20;;
21517;SDS011;61765;45.794;24.150;2022-09-09T19:18:42;16.92;;;13.13;;
21517;SDS011;61765;45.794;24.150;2022-09-09T19:26:52;16.95;;;13.85;;
21517;SDS011;61765;45.794;24.150;2022-09-09T19:35:00;21.00;;;14.50;;
21517;SDS011;61765;45.794;24.150;2022-09-09T19:43:09;20.77;;;15.10;;
21517;SDS011;61765;45.794;24.150;2022-09-09T19:51:15;27.77;;;18.10;;
21517;SDS011;61765;45.794;24.150;2022-09-09T19:59:25;20.48;;;15.85;;
21517;SDS011;61765;45.794;24.150;2022-09-09T20:07:30;22.02;;;16.25;;
21517;SDS011;61765;45.794;24.150;2022-09-09T20:15:38;24.13;;;17.10;;
21517;SDS011;61765;45.794;24.150;2022-09-09T20:23:44;26.73;;;16.88;;
21517;SDS011;61765;45.794;24.150;2022-09-09T20:31:52;26.80;;;17.90;;
21517;SDS011;61765;45.794;24.150;2022-09-09T20:39:58;26.80;;;18.85;;
21517;SDS011;61765;45.794;24.150;2022-09-09T20:48:06;22.35;;;17.48;;
21517;SDS011;61765;45.794;24.150;2022-09-09T20:56:12;19.83;;;16.42;;
21517;SDS011;61765;45.794;24.150;2022-09-09T21:04:21;25.35;;;18.23;;
21517;SDS011;61765;45.794;24.150;2022-09-09T21:12:27;25.35;;;17.58;;
21517;SDS011;61765;45.794;24.150;2022-09-09T21:20:35;24.38;;;19.73;;
21517;SDS011;61765;45.794;24.150;2022-09-09T21:28:40;20.15;;;16.50;;
21517;SDS011;61765;45.794;24.150;2022-09-09T21:36:49;21.80;;;16.67;;
21517;SDS011;61765;45.794;24.150;2022-09-09T21:44:54;22.92;;;16.20;;
21517;SDS011;61765;45.794;24.150;2022-09-09T21:53:02;20.70;;;16.40;;
21517;SDS011;61765;45.794;24.150;2022-09-09T22:01:12;21.50;;;16.73;;
21517;SDS011;61765;45.794;24.150;2022-09-09T22:09:21;29.77;;;19.25;;
21517;SDS011;61765;45.794;24.150;2022-09-09T22:17:27;20.92;;;18.10;;
21517;SDS011;61765;45.794;24.150;2022-09-09T22:25:35;23.77;;;17.77;;
21517;SDS011;61765;45.794;24.150;2022-09-09T22:33:41;24.23;;;17.85;;
21517;SDS011;61765;45.794;24.150;2022-09-09T22:41:49;23.05;;;16.45;;
21517;SDS011;61765;45.794;24.150;2022-09-09T22:49:55;23.83;;;17.00;;
21517;SDS011;61765;45.794;24.150;2022-09-09T22:58:03;24.23;;;16.75;;
21517;SDS011;61765;45.794;24.150;2022-09-09T23:06:09;19.50;;;14.52;;
21517;SDS011;61765;45.794;24.150;2022-09-09T23:14:18;23.48;;;15.57;;
21517;SDS011;61765;45.794;24.150;2022-09-09T23:22:24;22.98;;;15.50;;
21517;SDS011;61765;45.794;24.150;2022-09-09T23:30:32;21.90;;;18.85;;
21517;SDS011;61765;45.794;24.150;2022-09-09T23:38:38;23.58;;;16.88;;
21517;SDS011;61765;45.794;24.150;2022-09-09T23:46:47;23.10;;;15.27;;
21517;SDS011;61765;45.794;24.150;2022-09-09T23:54:52;18.98;;;15.23;;
